sensor_id;sensor_type;location;lat;lon;timestamp;temperature;humidity
43346;DHT22;28937;51.160;4.146;2023-05-07T00:01:44;20.00;94.90
43346;DHT22;28937;51.160;4.146;2023-05-07T00:04:10;20.00;95.00
43346;DHT22;28937;51.160;4.146;2023-05-07T00:06:36;20.00;95.00
43346;DHT22;28937;51.160;4.146;2023-05-07T00:09:02;20.00;94.90
43346;DHT22;28937;51.160;4.146;2023-05-07T00:11:28;20.00;95.00
43346;DHT22;28937;51.160;4.146;2023-05-07T00:13:54;19.90;95.00
43346;DHT22;28937;51.160;4.146;2023-05-07T00:16:19;19.90;95.10
43346;DHT22;28937;51.160;4.146;2023-05-07T00:18:45;19.90;95.10
43346;DHT22;28937;51.160;4.146;2023-05-07T00:21:11;19.90;95.20
43346;DHT22;28937;51.160;4.146;2023-05-07T00:23:37;19.80;95.20
43346;DHT22;28937;51.160;4.146;2023-05-07T00:26:03;19.80;95.30
43346;DHT22;28937;51.160;4.146;2023-05-07T00:28:29;19.80;95.20
43346;DHT22;28937;51.160;4.146;2023-05-07T00:30:54;19.80;95.20
43346;DHT22;28937;51.160;4.146;2023-05-07T00:33:20;19.80;95.20
43346;DHT22;28937;51.160;4.146;2023-05-07T00:35:46;19.80;95.20
43346;DHT22;28937;51.160;4.146;2023-05-07T00:38:11;19.70;95.30
43346;DHT22;28937;51.160;4.146;2023-05-07T00:40:37;19.70;95.40
43346;DHT22;28937;51.160;4.146;2023-05-07T00:43:03;19.70;95.50
43346;DHT22;28937;51.160;4.146;2023-05-07T00:45:29;19.80;95.50
43346;DHT22;28937;51.160;4.146;2023-05-07T00:48:00;19.70;95.50
43346;DHT22;28937;51.160;4.146;2023-05-07T00:50:26;19.70;95.50
43346;DHT22;28937;51.160;4.146;2023-05-07T00:52:53;19.70;95.60
43346;DHT22;28937;51.160;4.146;2023-05-07T00:55:19;19.60;95.70
43346;DHT22;28937;51.160;4.146;2023-05-07T00:57:45;19.60;95.60
43346;DHT22;28937;51.160;4.146;2023-05-07T01:00:11;19.60;95.70
43346;DHT22;28937;51.160;4.146;2023-05-07T01:02:40;19.60;95.70
43346;DHT22;28937;51.160;4.146;2023-05-07T01:05:09;19.60;95.70
43346;DHT22;28937;51.160;4.146;2023-05-07T01:07:37;19.60;95.80
43346;DHT22;28937;51.160;4.146;2023-05-07T01:10:05;19.50;95.80
43346;DHT22;28937;51.160;4.146;2023-05-07T01:12:32;19.60;95.80
43346;DHT22;28937;51.160;4.146;2023-05-07T01:14:58;19.50;95.80
43346;DHT22;28937;51.160;4.146;2023-05-07T01:17:24;19.50;96.00
43346;DHT22;28937;51.160;4.146;2023-05-07T01:19:49;19.40;96.10
43346;DHT22;28937;51.160;4.146;2023-05-07T01:22:28;19.40;96.00
43346;DHT22;28937;51.160;4.146;2023-05-07T01:24:54;19.40;96.10
43346;DHT22;28937;51.160;4.146;2023-05-07T01:27:21;19.40;96.10
43346;DHT22;28937;51.160;4.146;2023-05-07T01:29:46;19.40;96.30
43346;DHT22;28937;51.160;4.146;2023-05-07T01:32:13;19.40;96.30
43346;DHT22;28937;51.160;4.146;2023-05-07T01:34:40;19.40;96.30
43346;DHT22;28937;51.160;4.146;2023-05-07T01:37:06;19.30;96.30
43346;DHT22;28937;51.160;4.146;2023-05-07T01:39:31;19.40;96.40
43346;DHT22;28937;51.160;4.146;2023-05-07T01:41:58;19.30;96.40
43346;DHT22;28937;51.160;4.146;2023-05-07T01:44:25;19.30;96.50
43346;DHT22;28937;51.160;4.146;2023-05-07T01:46:51;19.30;96.50
43346;DHT22;28937;51.160;4.146;2023-05-07T01:49:17;19.40;96.40
43346;DHT22;28937;51.160;4.146;2023-05-07T01:51:43;19.40;96.50
43346;DHT22;28937;51.160;4.146;2023-05-07T01:54:09;19.30;96.50
43346;DHT22;28937;51.160;4.146;2023-05-07T01:56:35;19.30;96.60
43346;DHT22;28937;51.160;4.146;2023-05-07T01:59:01;19.30;96.60
43346;DHT22;28937;51.160;4.146;2023-05-07T02:01:27;19.30;96.70
43346;DHT22;28937;51.160;4.146;2023-05-07T02:03:53;19.30;96.70
43346;DHT22;28937;51.160;4.146;2023-05-07T02:06:19;19.20;96.80
43346;DHT22;28937;51.160;4.146;2023-05-07T02:08:45;19.20;96.80
43346;DHT22;28937;51.160;4.146;2023-05-07T02:11:11;19.20;96.70
43346;DHT22;28937;51.160;4.146;2023-05-07T02:13:37;19.20;96.80
43346;DHT22;28937;51.160;4.146;2023-05-07T02:16:02;19.20;96.80
43346;DHT22;28937;51.160;4.146;2023-05-07T02:18:28;19.20;96.90
43346;DHT22;28937;51.160;4.146;2023-05-07T02:20:54;19.20;96.90
43346;DHT22;28937;51.160;4.146;2023-05-07T02:23:19;19.20;97.00
43346;DHT22;28937;51.160;4.146;2023-05-07T02:25:45;19.20;97.00
43346;DHT22;28937;51.160;4.146;2023-05-07T02:28:11;19.20;97.00
43346;DHT22;28937;51.160;4.146;2023-05-07T02:30:37;19.20;97.10
43346;DHT22;28937;51.160;4.146;2023-05-07T02:33:03;19.20;97.10
43346;DHT22;28937;51.160;4.146;2023-05-07T02:35:28;19.10;97.20
43346;DHT22;28937;51.160;4.146;2023-05-07T02:37:54;19.10;97.30
43346;DHT22;28937;51.160;4.146;2023-05-07T02:40:20;19.10;97.30
43346;DHT22;28937;51.160;4.146;2023-05-07T02:42:45;19.10;97.20
43346;DHT22;28937;51.160;4.146;2023-05-07T02:45:11;19.10;97.20
43346;DHT22;28937;51.160;4.146;2023-05-07T02:47:37;19.10;97.30
43346;DHT22;28937;51.160;4.146;2023-05-07T02:50:03;19.00;97.30
43346;DHT22;28937;51.160;4.146;2023-05-07T02:52:29;19.10;97.30
43346;DHT22;28937;51.160;4.146;2023-05-07T02:54:54;19.10;97.30
43346;DHT22;28937;51.160;4.146;2023-05-07T02:57:20;19.10;97.30
43346;DHT22;28937;51.160;4.146;2023-05-07T02:59:45;19.10;97.30
43346;DHT22;28937;51.160;4.146;2023-05-07T03:02:11;19.10;97.30
43346;DHT22;28937;51.160;4.146;2023-05-07T03:04:37;19.10;97.30
43346;DHT22;28937;51.160;4.146;2023-05-07T03:07:03;19.10;97.30
43346;DHT22;28937;51.160;4.146;2023-05-07T03:09:28;19.10;97.30
43346;DHT22;28937;51.160;4.146;2023-05-07T03:11:54;19.10;97.20
43346;DHT22;28937;51.160;4.146;2023-05-07T03:14:19;19.10;97.30
43346;DHT22;28937;51.160;4.146;2023-05-07T03:16:45;19.00;97.40
43346;DHT22;28937;51.160;4.146;2023-05-07T03:19:11;19.00;97.40
43346;DHT22;28937;51.160;4.146;2023-05-07T03:21:36;19.00;97.50
43346;DHT22;28937;51.160;4.146;2023-05-07T03:24:02;19.10;97.50
43346;DHT22;28937;51.160;4.146;2023-05-07T03:26:28;19.00;97.50
43346;DHT22;28937;51.160;4.146;2023-05-07T03:28:54;19.00;97.60
43346;DHT22;28937;51.160;4.146;2023-05-07T03:31:20;19.10;97.60
43346;DHT22;28937;51.160;4.146;2023-05-07T03:33:54;19.00;97.60
43346;DHT22;28937;51.160;4.146;2023-05-07T03:36:20;19.00;97.60
43346;DHT22;28937;51.160;4.146;2023-05-07T03:38:46;19.00;97.80
43346;DHT22;28937;51.160;4.146;2023-05-07T03:41:12;19.00;97.70
43346;DHT22;28937;51.160;4.146;2023-05-07T03:43:38;19.00;97.70
43346;DHT22;28937;51.160;4.146;2023-05-07T03:46:03;19.00;97.60
43346;DHT22;28937;51.160;4.146;2023-05-07T03:48:29;19.00;97.70
43346;DHT22;28937;51.160;4.146;2023-05-07T03:50:55;19.00;97.80
43346;DHT22;28937;51.160;4.146;2023-05-07T03:53:21;19.00;97.80
43346;DHT22;28937;51.160;4.146;2023-05-07T03:55:46;19.00;97.90
43346;DHT22;28937;51.160;4.146;2023-05-07T03:58:12;18.90;98.00
43346;DHT22;28937;51.160;4.146;2023-05-07T04:00:37;18.90;98.00
43346;DHT22;28937;51.160;4.146;2023-05-07T04:03:04;18.90;98.00
43346;DHT22;28937;51.160;4.146;2023-05-07T04:05:30;18.90;98.10
43346;DHT22;28937;51.160;4.146;2023-05-07T04:07:58;18.90;98.10
43346;DHT22;28937;51.160;4.146;2023-05-07T04:10:23;18.90;98.10
43346;DHT22;28937;51.160;4.146;2023-05-07T04:12:49;18.90;98.10
43346;DHT22;28937;51.160;4.146;2023-05-07T04:15:14;18.90;98.10
43346;DHT22;28937;51.160;4.146;2023-05-07T04:17:40;18.90;98.20
43346;DHT22;28937;51.160;4.146;2023-05-07T04:20:09;18.90;98.30
43346;DHT22;28937;51.160;4.146;2023-05-07T04:22:36;18.80;98.40
43346;DHT22;28937;51.160;4.146;2023-05-07T04:25:02;18.90;98.50
43346;DHT22;28937;51.160;4.146;2023-05-07T04:27:28;18.80;98.50
43346;DHT22;28937;51.160;4.146;2023-05-07T04:29:53;18.80;98.50
43346;DHT22;28937;51.160;4.146;2023-05-07T04:32:22;18.80;98.60
43346;DHT22;28937;51.160;4.146;2023-05-07T04:34:47;18.80;98.70
43346;DHT22;28937;51.160;4.146;2023-05-07T04:37:13;18.80;98.70
43346;DHT22;28937;51.160;4.146;2023-05-07T04:39:39;18.90;98.70
43346;DHT22;28937;51.160;4.146;2023-05-07T04:42:04;18.90;98.70
43346;DHT22;28937;51.160;4.146;2023-05-07T04:44:32;18.80;99.00
43346;DHT22;28937;51.160;4.146;2023-05-07T04:46:58;18.90;98.80
43346;DHT22;28937;51.160;4.146;2023-05-07T04:49:24;18.80;98.80
43346;DHT22;28937;51.160;4.146;2023-05-07T04:51:50;18.80;98.90
43346;DHT22;28937;51.160;4.146;2023-05-07T04:54:15;18.80;99.00
43346;DHT22;28937;51.160;4.146;2023-05-07T04:56:41;18.80;99.00
43346;DHT22;28937;51.160;4.146;2023-05-07T04:59:06;18.90;99.00
43346;DHT22;28937;51.160;4.146;2023-05-07T05:01:33;18.80;99.00
43346;DHT22;28937;51.160;4.146;2023-05-07T05:03:59;18.90;99.00
43346;DHT22;28937;51.160;4.146;2023-05-07T05:06:25;18.80;99.00
43346;DHT22;28937;51.160;4.146;2023-05-07T05:08:51;18.80;99.10
43346;DHT22;28937;51.160;4.146;2023-05-07T05:11:17;18.80;99.00
43346;DHT22;28937;51.160;4.146;2023-05-07T05:13:42;18.80;99.20
43346;DHT22;28937;51.160;4.146;2023-05-07T05:16:08;18.90;99.30
43346;DHT22;28937;51.160;4.146;2023-05-07T05:18:34;18.90;99.50
43346;DHT22;28937;51.160;4.146;2023-05-07T05:20:59;18.80;99.10
43346;DHT22;28937;51.160;4.146;2023-05-07T05:23:25;18.90;99.30
43346;DHT22;28937;51.160;4.146;2023-05-07T05:25:55;18.90;99.30
43346;DHT22;28937;51.160;4.146;2023-05-07T05:28:21;18.90;99.20
43346;DHT22;28937;51.160;4.146;2023-05-07T05:30:47;18.90;99.30
43346;DHT22;28937;51.160;4.146;2023-05-07T05:33:12;18.90;99.30
43346;DHT22;28937;51.160;4.146;2023-05-07T05:35:38;18.90;99.50
43346;DHT22;28937;51.160;4.146;2023-05-07T05:38:04;18.90;99.60
43346;DHT22;28937;51.160;4.146;2023-05-07T05:40:29;18.90;99.60
43346;DHT22;28937;51.160;4.146;2023-05-07T05:42:56;18.90;99.60
43346;DHT22;28937;51.160;4.146;2023-05-07T05:45:22;18.90;99.60
43346;DHT22;28937;51.160;4.146;2023-05-07T05:47:47;19.00;99.70
43346;DHT22;28937;51.160;4.146;2023-05-07T05:50:13;19.00;99.80
43346;DHT22;28937;51.160;4.146;2023-05-07T05:52:38;19.00;99.70
43346;DHT22;28937;51.160;4.146;2023-05-07T05:55:04;19.00;99.90
43346;DHT22;28937;51.160;4.146;2023-05-07T05:57:30;19.00;99.90
43346;DHT22;28937;51.160;4.146;2023-05-07T05:59:56;19.10;99.90
43346;DHT22;28937;51.160;4.146;2023-05-07T06:02:22;19.10;99.90
43346;DHT22;28937;51.160;4.146;2023-05-07T06:04:47;19.10;99.90
43346;DHT22;28937;51.160;4.146;2023-05-07T06:07:13;19.30;99.90
43346;DHT22;28937;51.160;4.146;2023-05-07T06:09:38;19.40;99.80
43346;DHT22;28937;51.160;4.146;2023-05-07T06:12:04;19.40;99.80
43346;DHT22;28937;51.160;4.146;2023-05-07T06:14:30;19.50;99.90
43346;DHT22;28937;51.160;4.146;2023-05-07T06:16:56;19.50;99.90
43346;DHT22;28937;51.160;4.146;2023-05-07T06:19:21;19.50;99.90
43346;DHT22;28937;51.160;4.146;2023-05-07T06:21:49;19.50;99.90
43346;DHT22;28937;51.160;4.146;2023-05-07T06:24:15;19.40;99.80
43346;DHT22;28937;51.160;4.146;2023-05-07T06:26:41;19.40;99.90
43346;DHT22;28937;51.160;4.146;2023-05-07T06:29:06;19.50;99.90
43346;DHT22;28937;51.160;4.146;2023-05-07T06:31:32;19.50;99.90
43346;DHT22;28937;51.160;4.146;2023-05-07T06:33:57;19.50;99.90
43346;DHT22;28937;51.160;4.146;2023-05-07T06:36:24;19.50;99.90
43346;DHT22;28937;51.160;4.146;2023-05-07T06:38:50;19.60;99.90
43346;DHT22;28937;51.160;4.146;2023-05-07T06:41:15;19.60;99.90
43346;DHT22;28937;51.160;4.146;2023-05-07T06:43:41;19.60;99.90
43346;DHT22;28937;51.160;4.146;2023-05-07T06:46:06;19.60;99.90
43346;DHT22;28937;51.160;4.146;2023-05-07T06:48:32;19.60;99.90
43346;DHT22;28937;51.160;4.146;2023-05-07T06:50:58;19.70;99.90
43346;DHT22;28937;51.160;4.146;2023-05-07T06:53:24;19.60;99.80
43346;DHT22;28937;51.160;4.146;2023-05-07T06:55:50;19.70;99.00
43346;DHT22;28937;51.160;4.146;2023-05-07T06:58:15;19.70;98.20
43346;DHT22;28937;51.160;4.146;2023-05-07T07:00:41;19.80;97.40
43346;DHT22;28937;51.160;4.146;2023-05-07T07:03:07;19.80;97.30
43346;DHT22;28937;51.160;4.146;2023-05-07T07:05:32;19.80;97.10
43346;DHT22;28937;51.160;4.146;2023-05-07T07:07:58;19.90;97.30
43346;DHT22;28937;51.160;4.146;2023-05-07T07:10:24;19.80;97.00
43346;DHT22;28937;51.160;4.146;2023-05-07T07:12:50;19.80;97.40
43346;DHT22;28937;51.160;4.146;2023-05-07T07:15:16;19.90;97.30
43346;DHT22;28937;51.160;4.146;2023-05-07T07:17:42;19.90;97.20
43346;DHT22;28937;51.160;4.146;2023-05-07T07:20:08;19.90;97.20
43346;DHT22;28937;51.160;4.146;2023-05-07T07:22:33;19.90;97.60
43346;DHT22;28937;51.160;4.146;2023-05-07T07:24:59;19.90;97.50
43346;DHT22;28937;51.160;4.146;2023-05-07T07:27:25;19.90;98.40
43346;DHT22;28937;51.160;4.146;2023-05-07T07:29:51;19.90;98.10
43346;DHT22;28937;51.160;4.146;2023-05-07T07:32:16;19.90;97.90
43346;DHT22;28937;51.160;4.146;2023-05-07T07:34:42;19.90;98.00
43346;DHT22;28937;51.160;4.146;2023-05-07T07:37:08;19.90;98.00
43346;DHT22;28937;51.160;4.146;2023-05-07T07:39:33;20.00;98.20
43346;DHT22;28937;51.160;4.146;2023-05-07T07:41:59;20.00;98.30
43346;DHT22;28937;51.160;4.146;2023-05-07T07:44:25;20.00;98.70
43346;DHT22;28937;51.160;4.146;2023-05-07T07:46:51;19.90;98.50
43346;DHT22;28937;51.160;4.146;2023-05-07T07:49:17;19.90;97.90
43346;DHT22;28937;51.160;4.146;2023-05-07T07:51:43;20.00;98.00
43346;DHT22;28937;51.160;4.146;2023-05-07T07:54:08;20.00;98.00
43346;DHT22;28937;51.160;4.146;2023-05-07T07:56:34;20.00;98.00
43346;DHT22;28937;51.160;4.146;2023-05-07T07:59:00;20.00;98.30
43346;DHT22;28937;51.160;4.146;2023-05-07T08:01:26;20.00;98.60
43346;DHT22;28937;51.160;4.146;2023-05-07T08:03:52;20.00;99.00
43346;DHT22;28937;51.160;4.146;2023-05-07T08:06:18;20.00;99.20
43346;DHT22;28937;51.160;4.146;2023-05-07T08:08:44;20.00;99.20
43346;DHT22;28937;51.160;4.146;2023-05-07T08:11:09;20.00;99.70
43346;DHT22;28937;51.160;4.146;2023-05-07T08:13:36;20.00;99.60
43346;DHT22;28937;51.160;4.146;2023-05-07T08:16:02;20.00;99.80
43346;DHT22;28937;51.160;4.146;2023-05-07T08:18:27;20.10;99.90
43346;DHT22;28937;51.160;4.146;2023-05-07T08:20:54;20.10;99.90
43346;DHT22;28937;51.160;4.146;2023-05-07T08:23:20;20.10;99.90
43346;DHT22;28937;51.160;4.146;2023-05-07T08:25:46;20.20;99.90
43346;DHT22;28937;51.160;4.146;2023-05-07T08:28:12;20.20;99.90
43346;DHT22;28937;51.160;4.146;2023-05-07T08:30:37;20.20;99.80
43346;DHT22;28937;51.160;4.146;2023-05-07T08:33:03;20.20;99.70
43346;DHT22;28937;51.160;4.146;2023-05-07T08:35:29;20.20;99.70
43346;DHT22;28937;51.160;4.146;2023-05-07T08:37:55;20.20;99.40
43346;DHT22;28937;51.160;4.146;2023-05-07T08:40:23;20.20;99.40
43346;DHT22;28937;51.160;4.146;2023-05-07T08:42:54;20.20;99.30
43346;DHT22;28937;51.160;4.146;2023-05-07T08:45:21;20.20;99.40
43346;DHT22;28937;51.160;4.146;2023-05-07T08:47:51;20.20;99.20
43346;DHT22;28937;51.160;4.146;2023-05-07T08:50:18;20.20;99.20
43346;DHT22;28937;51.160;4.146;2023-05-07T08:52:45;20.20;99.20
43346;DHT22;28937;51.160;4.146;2023-05-07T08:55:11;20.20;99.20
43346;DHT22;28937;51.160;4.146;2023-05-07T08:57:38;20.30;99.20
43346;DHT22;28937;51.160;4.146;2023-05-07T09:00:04;20.30;99.50
43346;DHT22;28937;51.160;4.146;2023-05-07T09:02:33;20.30;99.60
43346;DHT22;28937;51.160;4.146;2023-05-07T09:04:58;20.30;99.50
43346;DHT22;28937;51.160;4.146;2023-05-07T09:07:25;20.30;99.40
43346;DHT22;28937;51.160;4.146;2023-05-07T09:09:51;20.30;99.20
43346;DHT22;28937;51.160;4.146;2023-05-07T09:12:18;20.30;99.10
43346;DHT22;28937;51.160;4.146;2023-05-07T09:14:45;20.30;99.40
43346;DHT22;28937;51.160;4.146;2023-05-07T09:17:11;20.30;99.80
43346;DHT22;28937;51.160;4.146;2023-05-07T09:19:37;20.30;99.80
43346;DHT22;28937;51.160;4.146;2023-05-07T09:22:03;20.30;99.90
43346;DHT22;28937;51.160;4.146;2023-05-07T09:24:30;20.30;99.90
43346;DHT22;28937;51.160;4.146;2023-05-07T09:27:01;20.30;99.90
43346;DHT22;28937;51.160;4.146;2023-05-07T09:29:27;20.30;99.70
43346;DHT22;28937;51.160;4.146;2023-05-07T09:32:01;20.30;99.40
43346;DHT22;28937;51.160;4.146;2023-05-07T09:34:28;20.30;99.30
43346;DHT22;28937;51.160;4.146;2023-05-07T09:36:54;20.30;99.00
43346;DHT22;28937;51.160;4.146;2023-05-07T09:39:19;20.30;98.90
43346;DHT22;28937;51.160;4.146;2023-05-07T09:41:48;20.30;98.80
43346;DHT22;28937;51.160;4.146;2023-05-07T09:44:16;20.30;99.20
43346;DHT22;28937;51.160;4.146;2023-05-07T09:46:43;20.30;99.60
43346;DHT22;28937;51.160;4.146;2023-05-07T09:49:19;20.30;99.70
43346;DHT22;28937;51.160;4.146;2023-05-07T09:51:49;20.40;99.90
43346;DHT22;28937;51.160;4.146;2023-05-07T09:54:16;20.40;99.90
43346;DHT22;28937;51.160;4.146;2023-05-07T09:56:46;20.40;99.90
43346;DHT22;28937;51.160;4.146;2023-05-07T09:59:14;20.40;99.90
43346;DHT22;28937;51.160;4.146;2023-05-07T10:01:42;20.40;99.90
43346;DHT22;28937;51.160;4.146;2023-05-07T10:04:09;20.40;99.90
43346;DHT22;28937;51.160;4.146;2023-05-07T10:06:36;20.40;99.90
43346;DHT22;28937;51.160;4.146;2023-05-07T10:09:04;20.30;99.90
43346;DHT22;28937;51.160;4.146;2023-05-07T10:11:32;20.30;99.80
43346;DHT22;28937;51.160;4.146;2023-05-07T10:13:59;20.30;99.50
43346;DHT22;28937;51.160;4.146;2023-05-07T10:16:31;20.30;99.20
43346;DHT22;28937;51.160;4.146;2023-05-07T10:18:58;20.30;99.20
43346;DHT22;28937;51.160;4.146;2023-05-07T10:21:27;20.30;99.10
43346;DHT22;28937;51.160;4.146;2023-05-07T10:24:31;20.30;99.10
43346;DHT22;28937;51.160;4.146;2023-05-07T10:27:02;20.40;99.10
43346;DHT22;28937;51.160;4.146;2023-05-07T10:29:39;20.40;99.40
43346;DHT22;28937;51.160;4.146;2023-05-07T10:34:54;20.40;99.90
43346;DHT22;28937;51.160;4.146;2023-05-07T10:37:20;20.40;99.90
43346;DHT22;28937;51.160;4.146;2023-05-07T10:39:46;20.50;99.90
43346;DHT22;28937;51.160;4.146;2023-05-07T10:42:14;20.50;99.90
43346;DHT22;28937;51.160;4.146;2023-05-07T10:44:40;20.40;99.90
43346;DHT22;28937;51.160;4.146;2023-05-07T10:47:11;20.50;99.90
43346;DHT22;28937;51.160;4.146;2023-05-07T10:52:31;20.50;99.90
43346;DHT22;28937;51.160;4.146;2023-05-07T10:57:43;20.50;99.90
43346;DHT22;28937;51.160;4.146;2023-05-07T11:05:30;20.60;99.90
43346;DHT22;28937;51.160;4.146;2023-05-07T11:08:03;20.60;99.90
43346;DHT22;28937;51.160;4.146;2023-05-07T11:13:14;20.60;99.90
43346;DHT22;28937;51.160;4.146;2023-05-07T11:15:45;20.60;99.90
43346;DHT22;28937;51.160;4.146;2023-05-07T11:18:13;20.50;99.90
43346;DHT22;28937;51.160;4.146;2023-05-07T11:20:54;20.60;99.90
43346;DHT22;28937;51.160;4.146;2023-05-07T11:28:37;20.60;99.90
43346;DHT22;28937;51.160;4.146;2023-05-07T11:31:03;20.60;99.90
43346;DHT22;28937;51.160;4.146;2023-05-07T11:33:33;20.60;99.90
43346;DHT22;28937;51.160;4.146;2023-05-07T11:36:00;20.70;99.90
43346;DHT22;28937;51.160;4.146;2023-05-07T11:38:28;20.70;99.90
43346;DHT22;28937;51.160;4.146;2023-05-07T11:40:56;20.70;99.90
43346;DHT22;28937;51.160;4.146;2023-05-07T11:43:22;20.70;99.90
43346;DHT22;28937;51.160;4.146;2023-05-07T11:45:48;20.70;99.90
43346;DHT22;28937;51.160;4.146;2023-05-07T11:48:16;20.70;99.90
43346;DHT22;28937;51.160;4.146;2023-05-07T11:50:54;20.70;99.90
43346;DHT22;28937;51.160;4.146;2023-05-07T11:53:25;20.80;99.90
43346;DHT22;28937;51.160;4.146;2023-05-07T11:55:57;20.80;99.90
43346;DHT22;28937;51.160;4.146;2023-05-07T11:58:24;20.80;99.90
43346;DHT22;28937;51.160;4.146;2023-05-07T12:00:53;20.80;99.90
43346;DHT22;28937;51.160;4.146;2023-05-07T12:03:20;20.80;99.90
43346;DHT22;28937;51.160;4.146;2023-05-07T12:05:47;20.80;99.90
43346;DHT22;28937;51.160;4.146;2023-05-07T12:08:16;20.80;99.90
43346;DHT22;28937;51.160;4.146;2023-05-07T12:10:46;20.80;99.90
43346;DHT22;28937;51.160;4.146;2023-05-07T12:13:19;20.90;99.90
43346;DHT22;28937;51.160;4.146;2023-05-07T12:15:45;20.90;99.90
43346;DHT22;28937;51.160;4.146;2023-05-07T12:18:12;20.80;99.90
43346;DHT22;28937;51.160;4.146;2023-05-07T12:20:39;20.90;99.90
43346;DHT22;28937;51.160;4.146;2023-05-07T12:23:05;20.90;99.90
43346;DHT22;28937;51.160;4.146;2023-05-07T12:25:38;20.90;99.90
43346;DHT22;28937;51.160;4.146;2023-05-07T12:28:05;20.90;99.90
43346;DHT22;28937;51.160;4.146;2023-05-07T12:30:36;20.90;99.90
43346;DHT22;28937;51.160;4.146;2023-05-07T12:33:02;20.90;99.90
43346;DHT22;28937;51.160;4.146;2023-05-07T12:35:32;20.90;99.90
43346;DHT22;28937;51.160;4.146;2023-05-07T12:38:01;21.00;99.90
43346;DHT22;28937;51.160;4.146;2023-05-07T12:41:01;21.00;99.90
43346;DHT22;28937;51.160;4.146;2023-05-07T12:43:28;21.00;99.90
43346;DHT22;28937;51.160;4.146;2023-05-07T12:46:05;21.00;99.90
43346;DHT22;28937;51.160;4.146;2023-05-07T12:48:31;21.10;99.90
43346;DHT22;28937;51.160;4.146;2023-05-07T12:50:59;21.10;99.90
43346;DHT22;28937;51.160;4.146;2023-05-07T12:53:26;21.10;99.90
43346;DHT22;28937;51.160;4.146;2023-05-07T12:55:55;21.00;99.90
43346;DHT22;28937;51.160;4.146;2023-05-07T12:58:27;21.10;99.90
43346;DHT22;28937;51.160;4.146;2023-05-07T13:00:54;21.10;99.90
43346;DHT22;28937;51.160;4.146;2023-05-07T13:05:52;21.10;99.80
43346;DHT22;28937;51.160;4.146;2023-05-07T13:08:32;21.10;99.30
43346;DHT22;28937;51.160;4.146;2023-05-07T13:10:59;21.10;99.10
43346;DHT22;28937;51.160;4.146;2023-05-07T13:13:32;21.10;98.80
43346;DHT22;28937;51.160;4.146;2023-05-07T13:16:00;21.20;99.30
43346;DHT22;28937;51.160;4.146;2023-05-07T13:18:26;21.20;99.30
43346;DHT22;28937;51.160;4.146;2023-05-07T13:20:52;21.20;99.10
43346;DHT22;28937;51.160;4.146;2023-05-07T13:23:18;21.10;99.10
43346;DHT22;28937;51.160;4.146;2023-05-07T13:25:44;21.20;99.10
43346;DHT22;28937;51.160;4.146;2023-05-07T13:28:10;21.20;99.00
43346;DHT22;28937;51.160;4.146;2023-05-07T13:30:36;21.20;99.10
43346;DHT22;28937;51.160;4.146;2023-05-07T13:33:02;21.20;99.30
43346;DHT22;28937;51.160;4.146;2023-05-07T13:35:28;21.20;99.60
43346;DHT22;28937;51.160;4.146;2023-05-07T13:37:54;21.20;99.90
43346;DHT22;28937;51.160;4.146;2023-05-07T13:40:21;21.20;99.80
43346;DHT22;28937;51.160;4.146;2023-05-07T13:42:47;21.20;99.90
43346;DHT22;28937;51.160;4.146;2023-05-07T13:45:14;21.20;99.90
43346;DHT22;28937;51.160;4.146;2023-05-07T13:47:42;21.30;99.90
43346;DHT22;28937;51.160;4.146;2023-05-07T13:50:09;21.20;99.90
43346;DHT22;28937;51.160;4.146;2023-05-07T13:52:37;21.30;99.90
43346;DHT22;28937;51.160;4.146;2023-05-07T13:55:02;21.30;99.90
43346;DHT22;28937;51.160;4.146;2023-05-07T13:57:28;21.30;99.90
43346;DHT22;28937;51.160;4.146;2023-05-07T13:59:54;21.30;99.90
43346;DHT22;28937;51.160;4.146;2023-05-07T14:02:20;21.30;99.90
43346;DHT22;28937;51.160;4.146;2023-05-07T14:04:45;21.30;99.70
43346;DHT22;28937;51.160;4.146;2023-05-07T14:07:11;21.40;99.50
43346;DHT22;28937;51.160;4.146;2023-05-07T14:09:37;21.40;99.60
43346;DHT22;28937;51.160;4.146;2023-05-07T14:12:02;21.30;99.60
43346;DHT22;28937;51.160;4.146;2023-05-07T14:14:28;21.30;99.40
43346;DHT22;28937;51.160;4.146;2023-05-07T14:16:54;21.40;99.50
43346;DHT22;28937;51.160;4.146;2023-05-07T14:19:19;21.40;99.40
43346;DHT22;28937;51.160;4.146;2023-05-07T14:21:45;21.40;99.40
43346;DHT22;28937;51.160;4.146;2023-05-07T14:24:11;21.40;99.40
43346;DHT22;28937;51.160;4.146;2023-05-07T14:26:36;21.40;99.30
43346;DHT22;28937;51.160;4.146;2023-05-07T14:29:03;21.40;99.30
43346;DHT22;28937;51.160;4.146;2023-05-07T14:31:28;21.40;99.20
43346;DHT22;28937;51.160;4.146;2023-05-07T14:33:54;21.40;99.00
43346;DHT22;28937;51.160;4.146;2023-05-07T14:36:20;21.40;99.10
43346;DHT22;28937;51.160;4.146;2023-05-07T14:38:47;21.50;99.10
43346;DHT22;28937;51.160;4.146;2023-05-07T14:41:12;21.50;99.00
43346;DHT22;28937;51.160;4.146;2023-05-07T14:43:38;21.50;99.00
43346;DHT22;28937;51.160;4.146;2023-05-07T14:46:04;21.50;98.90
43346;DHT22;28937;51.160;4.146;2023-05-07T14:48:29;21.50;98.90
43346;DHT22;28937;51.160;4.146;2023-05-07T14:50:55;21.50;98.80
43346;DHT22;28937;51.160;4.146;2023-05-07T14:53:22;21.50;98.70
43346;DHT22;28937;51.160;4.146;2023-05-07T14:55:48;21.50;98.60
43346;DHT22;28937;51.160;4.146;2023-05-07T14:58:14;21.50;98.60
43346;DHT22;28937;51.160;4.146;2023-05-07T15:00:40;21.50;98.50
43346;DHT22;28937;51.160;4.146;2023-05-07T15:03:08;21.60;98.20
43346;DHT22;28937;51.160;4.146;2023-05-07T15:05:35;21.60;97.90
43346;DHT22;28937;51.160;4.146;2023-05-07T15:08:01;21.60;97.80
43346;DHT22;28937;51.160;4.146;2023-05-07T15:10:27;21.60;97.60
43346;DHT22;28937;51.160;4.146;2023-05-07T15:12:53;21.60;97.20
43346;DHT22;28937;51.160;4.146;2023-05-07T15:15:18;21.60;97.10
43346;DHT22;28937;51.160;4.146;2023-05-07T15:17:44;21.70;97.20
43346;DHT22;28937;51.160;4.146;2023-05-07T15:20:10;21.60;97.50
43346;DHT22;28937;51.160;4.146;2023-05-07T15:22:36;21.70;97.20
43346;DHT22;28937;51.160;4.146;2023-05-07T15:25:03;21.70;97.60
43346;DHT22;28937;51.160;4.146;2023-05-07T15:27:30;21.70;97.30
43346;DHT22;28937;51.160;4.146;2023-05-07T15:29:56;21.70;97.20
43346;DHT22;28937;51.160;4.146;2023-05-07T15:32:22;21.70;97.60
43346;DHT22;28937;51.160;4.146;2023-05-07T15:34:48;21.70;97.90
43346;DHT22;28937;51.160;4.146;2023-05-07T15:37:13;21.60;97.90
43346;DHT22;28937;51.160;4.146;2023-05-07T15:39:39;21.70;97.80
43346;DHT22;28937;51.160;4.146;2023-05-07T15:42:05;21.70;97.70
43346;DHT22;28937;51.160;4.146;2023-05-07T15:44:31;21.70;97.70
43346;DHT22;28937;51.160;4.146;2023-05-07T15:46:59;21.70;97.70
43346;DHT22;28937;51.160;4.146;2023-05-07T15:49:25;21.70;97.80
43346;DHT22;28937;51.160;4.146;2023-05-07T15:51:50;21.70;97.70